createdAt,value
2023-04-12T00:01:04.997Z,42.83
2023-04-12T00:03:34.559Z,45.53
2023-04-12T00:06:03.607Z,75.15
2023-04-12T00:08:33.930Z,42.90
2023-04-12T00:11:02.853Z,42.33
2023-04-12T00:13:30.640Z,42.63
2023-04-12T00:15:57.670Z,41.28
2023-04-12T00:18:25.613Z,45.70
2023-04-12T00:20:53.225Z,49.55
2023-04-12T00:23:20.786Z,44.80
2023-04-12T00:25:48.103Z,49.50
2023-04-12T00:28:18.366Z,47.65
2023-04-12T00:30:46.155Z,40.20
2023-04-12T00:33:13.263Z,44.53
2023-04-12T00:35:40.406Z,45.30
2023-04-12T00:38:10.826Z,43.00
2023-04-12T00:40:42.778Z,39.17
2023-04-12T00:43:18.944Z,35.92
2023-04-12T00:45:47.785Z,37.90
2023-04-12T00:48:16.352Z,47.50
2023-04-12T00:50:44.963Z,38.95
2023-04-12T00:53:14.264Z,44.03
2023-04-12T00:55:45.028Z,36.85
2023-04-12T00:58:12.469Z,41.88
2023-04-12T01:00:40.280Z,41.72
2023-04-12T01:03:08.851Z,35.90
2023-04-12T01:05:44.654Z,42.53
2023-04-12T01:08:17.539Z,46.22
2023-04-12T01:11:08.954Z,42.88
2023-04-12T01:13:49.105Z,39.72
2023-04-12T01:16:28.466Z,43.38
2023-04-12T01:19:03.852Z,45.10
2023-04-12T01:21:53.301Z,46.45
2023-04-12T01:24:32.476Z,47.70
2023-04-12T01:27:02.038Z,38.42
2023-04-12T01:29:31.505Z,40.83
2023-04-12T01:34:29.289Z,42.72
2023-04-12T01:36:58.547Z,44.08
2023-04-12T01:39:26.534Z,41.13
2023-04-12T01:41:53.638Z,52.67
2023-04-12T01:44:20.708Z,53.15
2023-04-12T01:46:48.894Z,40.45
2023-04-12T01:49:17.777Z,44.20
2023-04-12T01:51:47.676Z,47.83
2023-04-12T01:54:38.953Z,49.20
2023-04-12T01:57:08.697Z,48.95
2023-04-12T01:59:40.074Z,43.03
2023-04-12T02:02:08.930Z,47.67
2023-04-12T02:04:37.318Z,40.20
2023-04-12T02:07:04.731Z,51.78
2023-04-12T02:09:37.996Z,46.25
2023-04-12T02:12:06.673Z,45.38
2023-04-12T02:14:33.928Z,46.80
2023-04-12T02:17:05.148Z,47.85
2023-04-12T02:19:33.133Z,51.17
2023-04-12T02:22:01.192Z,50.60
2023-04-12T02:24:29.645Z,47.78
2023-04-12T02:26:59.190Z,50.35
2023-04-12T02:29:27.566Z,48.20
2023-04-12T02:31:54.729Z,44.75
2023-04-12T02:34:24.458Z,44.28
2023-04-12T02:36:59.262Z,51.35
2023-04-12T02:39:26.307Z,54.28
2023-04-12T02:41:54.258Z,47.92
2023-04-12T02:44:21.480Z,45.08
2023-04-12T02:47:08.421Z,51.33
2023-04-12T02:49:36.469Z,46.42
2023-04-12T02:52:04.802Z,50.28
2023-04-12T02:54:39.688Z,58.60
2023-04-12T02:57:11.633Z,47.95
2023-04-12T02:59:43.348Z,59.70
2023-04-12T03:02:23.857Z,50.75
2023-04-12T03:04:55.018Z,40.92
2023-04-12T03:07:31.038Z,51.75
2023-04-12T03:09:58.548Z,56.17
2023-04-12T03:12:26.422Z,48.22
2023-04-12T03:15:08.477Z,49.58
2023-04-12T03:17:36.189Z,47.85
2023-04-12T03:20:07.888Z,48.67
2023-04-12T03:22:35.109Z,53.60
2023-04-12T03:25:04.085Z,49.63
2023-04-12T03:27:31.305Z,57.40
2023-04-12T03:29:59.366Z,56.30
2023-04-12T03:32:26.864Z,53.70
2023-04-12T03:34:55.606Z,54.42
2023-04-12T03:37:25.396Z,54.72
2023-04-12T03:39:55.697Z,51.20
2023-04-12T03:45:05.823Z,53.38
2023-04-12T03:47:33.401Z,60.45
2023-04-12T03:52:35.164Z,67.18
2023-04-12T03:55:07.900Z,57.85
2023-04-12T03:57:36.357Z,59.03
2023-04-12T04:00:05.060Z,60.00
2023-04-12T04:02:47.564Z,63.47
2023-04-12T04:05:16.875Z,64.22
2023-04-12T04:07:45.942Z,68.32
2023-04-12T04:10:14.804Z,68.10
2023-04-12T04:12:42.979Z,76.78
2023-04-12T04:15:15.181Z,57.25
2023-04-12T04:17:43.106Z,59.25
2023-04-12T04:20:13.762Z,60.53
2023-04-12T04:22:44.817Z,63.88
2023-04-12T04:25:14.394Z,57.85
2023-04-12T04:27:45.120Z,61.10
2023-04-12T04:30:15.402Z,69.47
2023-04-12T04:32:46.204Z,70.38
2023-04-12T04:35:16.881Z,71.53
2023-04-12T04:38:02.503Z,62.70
2023-04-12T04:40:29.666Z,54.42
2023-04-12T04:42:57.952Z,58.33
2023-04-12T04:45:27.712Z,60.10
2023-04-12T04:47:56.087Z,60.15
2023-04-12T04:50:24.582Z,74.47
2023-04-12T04:52:53.457Z,54.95
2023-04-12T04:55:27.607Z,57.88
2023-04-12T04:57:54.597Z,56.42
2023-04-12T05:00:21.954Z,62.67
2023-04-12T05:02:54.967Z,63.63
2023-04-12T05:05:28.598Z,64.75
2023-04-12T05:08:02.928Z,69.38
2023-04-12T05:10:32.574Z,63.33
2023-04-12T05:13:02.629Z,63.22
2023-04-12T05:15:32.004Z,55.35
2023-04-12T05:18:00.055Z,55.38
2023-04-12T05:20:27.698Z,57.13
2023-04-12T05:22:54.803Z,46.42
2023-04-12T05:25:22.077Z,62.47
2023-04-12T05:27:59.230Z,57.25
2023-04-12T05:30:26.333Z,58.13
2023-04-12T05:32:53.655Z,54.08
2023-04-12T05:35:21.647Z,64.40
2023-04-12T05:37:52.394Z,54.85
2023-04-12T05:40:19.459Z,47.92
2023-04-12T05:42:50.026Z,54.58
2023-04-12T05:45:17.406Z,46.22
2023-04-12T05:47:44.597Z,53.70
2023-04-12T05:50:11.747Z,39.60
2023-04-12T05:52:39.297Z,53.47
2023-04-12T05:55:08.286Z,45.65
2023-04-12T05:57:39.436Z,39.25
2023-04-12T06:00:13.316Z,39.90
2023-04-12T06:02:46.775Z,26.23
2023-04-12T06:05:17.095Z,32.47
2023-04-12T06:07:48.382Z,36.65
2023-04-12T06:10:17.583Z,43.17
2023-04-12T06:12:48.213Z,27.80
2023-04-12T06:15:15.608Z,34.92
2023-04-12T06:17:42.746Z,31.58
2023-04-12T06:20:10.484Z,32.45
2023-04-12T06:25:08.171Z,30.30
2023-04-12T06:27:35.410Z,35.53
2023-04-12T06:30:02.658Z,31.48
2023-04-12T06:32:32.830Z,31.45
2023-04-12T06:35:00.919Z,35.08
2023-04-12T06:37:28.021Z,35.35
2023-04-12T06:39:55.041Z,37.13
2023-04-12T06:42:22.101Z,34.28
2023-04-12T06:44:49.107Z,32.42
2023-04-12T06:47:16.511Z,42.20
2023-04-12T06:49:43.526Z,34.45
2023-04-12T06:52:10.651Z,35.03
2023-04-12T06:54:38.622Z,39.30
2023-04-12T06:57:11.003Z,27.08
2023-04-12T06:59:37.990Z,22.67
2023-04-12T07:02:05.167Z,28.42
2023-04-12T07:04:32.209Z,28.92
2023-04-12T07:06:59.369Z,30.55
2023-04-12T07:09:26.673Z,27.33
2023-04-12T07:11:53.707Z,23.17
2023-04-12T07:14:20.746Z,29.15
2023-04-12T07:16:47.787Z,25.30
2023-04-12T07:19:14.867Z,20.55
2023-04-12T07:21:41.982Z,22.63
2023-04-12T07:24:09.115Z,21.02
2023-04-12T07:26:36.213Z,19.95
2023-04-12T07:29:03.690Z,18.40
2023-04-12T07:31:30.991Z,19.45
2023-04-12T07:33:58.317Z,20.73
2023-04-12T07:36:27.277Z,20.52
2023-04-12T07:38:55.991Z,19.55
2023-04-12T07:41:23.517Z,29.95
2023-04-12T07:43:50.896Z,22.98
2023-04-12T07:46:17.968Z,23.63
2023-04-12T07:48:45.024Z,23.92
2023-04-12T07:51:12.195Z,25.23
2023-04-12T07:53:40.907Z,22.67
2023-04-12T07:56:08.288Z,24.35
2023-04-12T07:58:35.656Z,29.27
2023-04-12T08:01:02.642Z,30.17
2023-04-12T08:03:29.811Z,31.02
2023-04-12T08:05:57.036Z,29.23
2023-04-12T08:08:24.176Z,31.52
2023-04-12T08:10:52.304Z,26.55
2023-04-12T08:13:19.809Z,30.42
2023-04-12T08:15:47.881Z,27.33
2023-04-12T08:18:15.786Z,26.58
2023-04-12T08:20:44.381Z,22.50
2023-04-12T08:23:14.711Z,21.23
2023-04-12T08:25:41.915Z,46.22
2023-04-12T08:28:08.945Z,25.02
2023-04-12T08:30:36.865Z,19.10
2023-04-12T08:33:04.311Z,18.52
2023-04-12T08:35:31.916Z,14.95
2023-04-12T08:38:00.398Z,17.70
2023-04-12T08:40:27.402Z,18.60
2023-04-12T08:42:57.424Z,21.50
2023-04-12T08:45:29.246Z,42.55
2023-04-12T08:47:56.556Z,22.80
2023-04-12T08:50:25.499Z,13.80
2023-04-12T08:52:53.575Z,18.80
2023-04-12T08:55:20.597Z,17.55
2023-04-12T08:57:48.323Z,14.60
2023-04-12T09:00:16.569Z,16.13
2023-04-12T09:02:46.568Z,21.58
2023-04-12T09:05:14.662Z,19.30
2023-04-12T09:07:42.314Z,14.90
2023-04-12T09:10:09.540Z,12.68
2023-04-12T09:12:46.032Z,14.38
2023-04-12T09:15:15.714Z,18.38
2023-04-12T09:17:43.132Z,14.90
2023-04-12T09:20:12.892Z,16.65
2023-04-12T09:22:44.517Z,13.05
2023-04-12T09:25:12.697Z,17.98
2023-04-12T09:27:51.092Z,13.20
2023-04-12T09:30:19.713Z,14.93
2023-04-12T09:32:51.253Z,14.98
2023-04-12T09:35:18.853Z,15.45
2023-04-12T09:37:45.849Z,15.27
2023-04-12T09:40:13.112Z,11.98
2023-04-12T09:42:54.454Z,17.17
2023-04-12T09:45:26.445Z,22.95
2023-04-12T09:47:54.863Z,13.07
2023-04-12T09:50:24.006Z,13.73
2023-04-12T09:52:52.824Z,15.18
2023-04-12T09:55:21.982Z,13.00
2023-04-12T09:57:51.743Z,14.77
2023-04-12T10:00:20.253Z,12.77
2023-04-12T10:02:52.751Z,14.57
2023-04-12T10:05:23.271Z,13.52
2023-04-12T10:07:51.226Z,12.90
2023-04-12T10:10:19.758Z,11.68
2023-04-12T10:12:48.620Z,12.13
2023-04-12T10:15:21.258Z,12.25
2023-04-12T10:17:55.737Z,11.68
2023-04-12T10:20:26.154Z,11.75
2023-04-12T10:22:54.694Z,11.52
2023-04-12T10:25:26.015Z,11.80
2023-04-12T10:27:53.282Z,16.02
2023-04-12T10:30:28.734Z,14.38
2023-04-12T10:33:05.286Z,20.33
2023-04-12T10:36:04.121Z,12.10
2023-04-12T10:38:44.762Z,9.88
2023-04-12T10:41:20.236Z,12.23
2023-04-12T10:43:51.688Z,10.70
2023-04-12T10:46:39.347Z,11.20
2023-04-12T10:49:15.440Z,11.73
2023-04-12T10:52:13.091Z,18.13
2023-04-12T10:54:40.229Z,13.63
2023-04-12T10:57:41.506Z,9.50
2023-04-12T11:00:09.061Z,13.32
2023-04-12T11:02:56.432Z,14.57
2023-04-12T11:05:23.710Z,13.20
2023-04-12T11:08:07.234Z,12.75
2023-04-12T11:10:46.987Z,10.95
2023-04-12T11:13:22.306Z,11.80
2023-04-12T11:15:55.079Z,15.57
2023-04-12T11:18:22.544Z,15.57
2023-04-12T11:20:52.772Z,10.30
2023-04-12T11:23:19.938Z,14.73
2023-04-12T11:25:53.074Z,15.23
2023-04-12T11:28:28.505Z,15.65
2023-04-12T11:30:57.429Z,11.38
2023-04-12T11:33:35.220Z,16.38
2023-04-12T11:36:12.453Z,12.13
2023-04-12T11:38:40.064Z,9.77
2023-04-12T11:41:09.120Z,15.05
2023-04-12T11:43:38.906Z,11.35
2023-04-12T11:46:06.439Z,12.85
2023-04-12T11:48:34.035Z,10.48
2023-04-12T11:51:11.011Z,14.50
2023-04-12T11:53:38.988Z,15.68
2023-04-12T11:56:06.427Z,17.98
2023-04-12T11:58:33.441Z,15.38
2023-04-12T12:01:00.921Z,15.23
2023-04-12T12:03:28.834Z,13.65
2023-04-12T12:05:56.688Z,11.30
2023-04-12T12:08:24.753Z,12.45
2023-04-12T12:11:04.082Z,13.48
2023-04-12T12:13:48.248Z,12.10
2023-04-12T12:16:15.994Z,14.10
2023-04-12T12:18:44.874Z,14.75
2023-04-12T12:21:13.635Z,11.90
2023-04-12T12:23:43.455Z,13.50
2023-04-12T12:26:19.073Z,14.02
2023-04-12T12:28:54.670Z,12.90
2023-04-12T12:31:24.063Z,14.98
2023-04-12T12:33:57.116Z,10.85
2023-04-12T12:36:36.205Z,12.07
2023-04-12T12:39:10.724Z,13.50
2023-04-12T12:41:39.486Z,11.20
2023-04-12T12:44:08.063Z,11.70
2023-04-12T12:49:06.147Z,15.27
2023-04-12T12:51:33.344Z,11.88
2023-04-12T12:54:01.268Z,10.38
2023-04-12T12:56:28.462Z,11.50
2023-04-12T12:58:55.970Z,15.43
2023-04-12T13:01:23.110Z,13.50
2023-04-12T13:03:50.406Z,12.68
2023-04-12T13:06:17.462Z,11.43
2023-04-12T13:08:44.535Z,13.32
2023-04-12T13:11:11.557Z,13.35
2023-04-12T13:13:38.778Z,11.25
2023-04-12T13:16:06.256Z,14.35
2023-04-12T13:18:33.311Z,10.05
2023-04-12T13:21:00.679Z,11.88
2023-04-12T13:23:27.765Z,12.68
2023-04-12T13:25:54.800Z,14.65
2023-04-12T13:28:22.072Z,17.90
2023-04-12T13:30:49.084Z,12.70
2023-04-12T13:33:20.182Z,12.30
2023-04-12T13:35:48.871Z,24.75
2023-04-12T13:38:15.940Z,10.73
2023-04-12T13:40:42.942Z,14.68
2023-04-12T13:43:09.958Z,12.43
2023-04-12T13:45:36.968Z,12.73
2023-04-12T13:48:04.171Z,17.92
2023-04-12T13:50:31.282Z,12.90
2023-04-12T13:52:58.308Z,10.88
2023-04-12T13:55:25.524Z,12.45
2023-04-12T13:57:52.646Z,15.02
2023-04-12T14:00:20.312Z,12.55
2023-04-12T14:02:47.426Z,15.27
2023-04-12T14:05:15.089Z,15.02
2023-04-12T14:07:42.311Z,17.88
2023-04-12T14:10:10.002Z,13.65
2023-04-12T14:12:37.151Z,15.52
2023-04-12T14:15:05.962Z,15.18
2023-04-12T14:17:33.258Z,15.82
2023-04-12T14:20:00.602Z,12.40
2023-04-12T14:22:28.267Z,15.05
2023-04-12T14:24:55.568Z,27.15
2023-04-12T14:27:22.714Z,19.77
2023-04-12T14:29:49.797Z,15.43
2023-04-12T14:32:17.161Z,14.73
2023-04-12T14:34:44.376Z,14.23
2023-04-12T14:37:11.572Z,23.08
2023-04-12T14:39:38.608Z,15.95
2023-04-12T14:42:06.201Z,15.48
2023-04-12T14:44:33.274Z,16.38
2023-04-12T14:47:00.260Z,19.55
2023-04-12T14:49:28.528Z,16.20
2023-04-12T14:51:57.276Z,15.98
2023-04-12T14:54:24.274Z,18.17
2023-04-12T14:56:54.864Z,15.93
2023-04-12T14:59:23.545Z,16.00
2023-04-12T15:01:52.771Z,20.00
2023-04-12T15:04:20.339Z,16.83
2023-04-12T15:06:47.647Z,12.98
2023-04-12T15:09:17.824Z,12.77
2023-04-12T15:11:47.669Z,18.95
2023-04-12T15:14:20.652Z,13.43
2023-04-12T15:16:49.320Z,16.48
2023-04-12T15:19:21.074Z,10.50
2023-04-12T15:21:55.178Z,14.18
2023-04-12T15:24:22.682Z,15.88
2023-04-12T15:26:51.598Z,19.02
2023-04-12T15:29:21.324Z,16.15
2023-04-12T15:31:48.434Z,16.48
2023-04-12T15:34:15.620Z,14.40
2023-04-12T15:36:46.087Z,12.82
2023-04-12T15:39:15.121Z,14.02
2023-04-12T15:41:43.563Z,14.85
2023-04-12T15:44:14.843Z,18.35
2023-04-12T15:46:42.591Z,20.60
2023-04-12T15:49:10.828Z,15.38
2023-04-12T15:51:38.507Z,15.90
2023-04-12T15:54:06.312Z,15.30
2023-04-12T15:56:34.625Z,27.48
2023-04-12T15:59:01.917Z,20.45
2023-04-12T16:01:29.198Z,32.15
2023-04-12T16:03:56.529Z,34.63
2023-04-12T16:06:25.354Z,51.45
2023-04-12T16:08:54.881Z,14.52
2023-04-12T16:11:24.014Z,20.08
2023-04-12T16:13:51.781Z,18.70
2023-04-12T16:16:22.940Z,17.48
2023-04-12T16:18:51.638Z,28.50
2023-04-12T16:21:20.366Z,18.60
2023-04-12T16:23:48.795Z,17.77
2023-04-12T16:26:22.209Z,24.90
2023-04-12T16:28:50.566Z,30.83
2023-04-12T16:31:19.808Z,35.22
2023-04-12T16:33:51.050Z,29.45
2023-04-12T16:36:18.720Z,24.40
2023-04-12T16:38:45.898Z,23.00
2023-04-12T16:41:13.132Z,34.47
2023-04-12T16:43:41.053Z,35.38
2023-04-12T16:46:09.652Z,30.20
2023-04-12T16:48:41.271Z,39.08
2023-04-12T16:51:08.345Z,31.98
2023-04-12T16:53:36.751Z,48.70
2023-04-12T16:56:04.730Z,40.38
2023-04-12T16:58:33.136Z,32.67
2023-04-12T17:01:00.171Z,34.53
2023-04-12T17:03:27.722Z,39.63
2023-04-12T17:05:54.892Z,32.63
2023-04-12T17:08:22.803Z,28.67
2023-04-12T17:10:50.104Z,23.08
2023-04-12T17:13:18.753Z,26.42
2023-04-12T17:15:48.349Z,26.98
2023-04-12T17:18:15.594Z,40.75
2023-04-12T17:20:42.975Z,39.10
2023-04-12T17:23:10.435Z,38.50
2023-04-12T17:25:37.786Z,29.88
2023-04-12T17:28:05.320Z,33.70
2023-04-12T17:30:32.715Z,37.65
2023-04-12T17:33:01.798Z,35.80
2023-04-12T17:35:29.292Z,27.30
2023-04-12T17:37:56.548Z,26.38
2023-04-12T17:40:23.562Z,41.67
2023-04-12T17:42:50.672Z,31.90
2023-04-12T17:45:19.347Z,25.35
2023-04-12T17:47:46.458Z,44.83
2023-04-12T17:50:14.244Z,27.92
2023-04-12T17:52:42.472Z,22.58
2023-04-12T17:55:10.170Z,26.77
2023-04-12T17:57:37.231Z,31.70
2023-04-12T18:00:14.290Z,26.58
2023-04-12T18:02:43.636Z,19.92
2023-04-12T18:05:11.512Z,21.70
2023-04-12T18:07:40.205Z,27.83
2023-04-12T18:10:09.309Z,29.52
2023-04-12T18:12:38.810Z,30.05
2023-04-12T18:15:08.421Z,18.90
2023-04-12T18:17:35.979Z,23.58
2023-04-12T18:20:05.297Z,36.17
2023-04-12T18:22:32.583Z,24.55
2023-04-12T18:24:59.633Z,46.80
2023-04-12T18:27:26.637Z,19.55
2023-04-12T18:29:53.773Z,33.83
2023-04-12T18:32:21.426Z,28.90
2023-04-12T18:34:48.783Z,20.10
2023-04-12T18:37:16.092Z,32.53
2023-04-12T18:39:43.119Z,16.23
2023-04-12T18:42:10.182Z,23.27
2023-04-12T18:44:37.942Z,21.27
2023-04-12T18:47:05.061Z,15.32
2023-04-12T18:49:32.319Z,26.48
2023-04-12T18:51:59.518Z,26.33
2023-04-12T18:54:27.970Z,23.80
2023-04-12T18:56:55.143Z,25.23
2023-04-12T18:59:22.338Z,18.63
2023-04-12T19:01:49.475Z,19.90
2023-04-12T19:04:16.920Z,24.38
2023-04-12T19:06:45.371Z,25.38
2023-04-12T19:09:12.428Z,18.80
2023-04-12T19:11:39.803Z,26.02
2023-04-12T19:14:07.734Z,18.38
2023-04-12T19:16:35.697Z,18.77
2023-04-12T19:19:02.875Z,22.80
2023-04-12T19:21:29.919Z,29.15
2023-04-12T19:23:57.166Z,31.00
2023-04-12T19:26:24.821Z,19.50
2023-04-12T19:28:55.669Z,27.38
2023-04-12T19:31:23.914Z,18.17
2023-04-12T19:33:51.021Z,24.00
2023-04-12T19:36:18.004Z,32.88
2023-04-12T19:38:47.897Z,31.92
2023-04-12T19:41:18.014Z,30.02
2023-04-12T19:43:45.058Z,30.63
2023-04-12T19:46:12.197Z,26.75
2023-04-12T19:48:39.245Z,43.40
2023-04-12T19:51:07.440Z,44.50
2023-04-12T19:53:34.550Z,39.85
2023-04-12T19:56:04.210Z,30.42
2023-04-12T19:58:32.220Z,33.40
2023-04-12T20:01:02.292Z,49.38
2023-04-12T20:03:30.223Z,35.65
2023-04-12T20:05:59.129Z,43.92
2023-04-12T20:08:28.533Z,43.78
2023-04-12T20:10:56.391Z,41.90
2023-04-12T20:13:23.464Z,32.13
2023-04-12T20:15:51.234Z,36.88
2023-04-12T20:18:18.399Z,35.40
2023-04-12T20:20:45.776Z,38.42
2023-04-12T20:23:14.007Z,79.28
2023-04-12T20:25:41.957Z,40.75
2023-04-12T20:28:09.490Z,37.08
2023-04-12T20:30:37.050Z,39.53
2023-04-12T20:33:04.639Z,35.13
2023-04-12T20:35:32.204Z,36.50
2023-04-12T20:37:59.612Z,37.00
2023-04-12T20:40:29.988Z,36.97
2023-04-12T20:42:57.294Z,41.42
2023-04-12T20:45:24.339Z,37.15
2023-04-12T20:47:51.452Z,41.28
2023-04-12T20:50:22.674Z,33.22
2023-04-12T20:52:52.364Z,41.53
2023-04-12T20:55:19.774Z,31.38
2023-04-12T20:57:46.822Z,33.38
2023-04-12T21:00:23.775Z,30.88
2023-04-12T21:02:51.044Z,42.15
2023-04-12T21:05:18.167Z,29.30
2023-04-12T21:07:47.095Z,42.05
2023-04-12T21:10:15.013Z,46.70
2023-04-12T21:12:42.875Z,30.55
2023-04-12T21:15:11.927Z,38.20
2023-04-12T21:17:39.485Z,31.90
2023-04-12T21:20:13.849Z,28.92
2023-04-12T21:22:42.507Z,32.28
2023-04-12T21:25:15.127Z,31.55
2023-04-12T21:27:43.813Z,26.48
2023-04-12T21:30:11.599Z,27.17
2023-04-12T21:32:39.518Z,23.67
2023-04-12T21:35:07.501Z,31.90
2023-04-12T21:37:36.060Z,24.52
2023-04-12T21:40:09.942Z,23.65
2023-04-12T21:42:37.923Z,23.92
2023-04-12T21:45:13.187Z,25.70
2023-04-12T21:47:41.731Z,25.48
2023-04-12T21:50:10.428Z,21.55
2023-04-12T21:52:37.999Z,27.15
2023-04-12T21:55:05.901Z,26.27
2023-04-12T21:57:34.330Z,54.75
2023-04-12T22:00:02.430Z,24.30
2023-04-12T22:02:39.302Z,24.13
2023-04-12T22:05:07.052Z,24.38
2023-04-12T22:07:34.017Z,23.58
2023-04-12T22:10:02.034Z,20.98
2023-04-12T22:12:33.895Z,25.73
2023-04-12T22:15:00.956Z,21.70
2023-04-12T22:17:28.195Z,34.25
2023-04-12T22:19:56.773Z,21.17
2023-04-12T22:22:25.114Z,21.88
2023-04-12T22:24:52.823Z,24.70
2023-04-12T22:27:19.981Z,23.52
2023-04-12T22:29:47.928Z,23.77
2023-04-12T22:32:14.977Z,20.30
2023-04-12T22:34:42.258Z,21.83
2023-04-12T22:37:09.318Z,20.50
2023-04-12T22:39:36.636Z,26.67
2023-04-12T22:42:04.287Z,27.98
2023-04-12T22:44:38.149Z,21.95
2023-04-12T22:47:07.438Z,23.05
2023-04-12T22:49:44.687Z,28.17
2023-04-12T22:52:12.183Z,22.55
2023-04-12T22:54:40.315Z,21.23
2023-04-12T22:57:07.423Z,26.75
2023-04-12T22:59:35.018Z,22.83
2023-04-12T23:02:02.704Z,25.27
2023-04-12T23:04:29.790Z,23.55
2023-04-12T23:06:56.774Z,28.77
2023-04-12T23:09:23.887Z,23.58
2023-04-12T23:11:51.679Z,21.92
2023-04-12T23:14:18.778Z,21.13
2023-04-12T23:16:46.323Z,26.40
2023-04-12T23:19:14.887Z,19.10
2023-04-12T23:21:42.097Z,23.60
2023-04-12T23:24:12.121Z,21.50
2023-04-12T23:26:39.542Z,20.25
2023-04-12T23:29:06.631Z,21.70
2023-04-12T23:31:33.719Z,19.67
2023-04-12T23:34:06.109Z,45.55
2023-04-12T23:36:34.019Z,22.67
2023-04-12T23:39:02.228Z,22.67
2023-04-12T23:41:31.723Z,24.05
2023-04-12T23:43:59.545Z,20.02
2023-04-12T23:46:26.960Z,23.80
2023-04-12T23:48:54.070Z,21.27
2023-04-12T23:51:22.122Z,22.23
2023-04-12T23:53:49.170Z,22.73
2023-04-12T23:56:16.536Z,24.13
2023-04-12T23:58:43.575Z,23.02
